sensor_id;sensor_type;location;lat;lon;timestamp;temperature;humidity
51996;DHT22;38010;53.264;6.592;2023-03-23T00:01:49;14.20;99.90
51996;DHT22;38010;53.264;6.592;2023-03-23T00:04:16;14.20;99.90
51996;DHT22;38010;53.264;6.592;2023-03-23T00:06:42;14.20;99.90
51996;DHT22;38010;53.264;6.592;2023-03-23T00:09:09;14.20;99.90
51996;DHT22;38010;53.264;6.592;2023-03-23T00:11:35;14.20;99.90
51996;DHT22;38010;53.264;6.592;2023-03-23T00:14:01;14.20;99.90
51996;DHT22;38010;53.264;6.592;2023-03-23T00:16:32;14.20;99.90
51996;DHT22;38010;53.264;6.592;2023-03-23T00:19:07;14.20;99.90
51996;DHT22;38010;53.264;6.592;2023-03-23T00:21:35;14.20;99.90
51996;DHT22;38010;53.264;6.592;2023-03-23T00:26:30;14.20;99.90
51996;DHT22;38010;53.264;6.592;2023-03-23T00:29:03;14.20;99.90
51996;DHT22;38010;53.264;6.592;2023-03-23T00:31:29;14.20;99.90
51996;DHT22;38010;53.264;6.592;2023-03-23T00:34:03;14.20;99.90
51996;DHT22;38010;53.264;6.592;2023-03-23T00:36:33;14.20;99.90
51996;DHT22;38010;53.264;6.592;2023-03-23T00:39:03;14.20;99.90
51996;DHT22;38010;53.264;6.592;2023-03-23T00:41:30;14.20;99.90
51996;DHT22;38010;53.264;6.592;2023-03-23T00:43:57;14.20;99.90
51996;DHT22;38010;53.264;6.592;2023-03-23T00:46:24;14.20;99.90
51996;DHT22;38010;53.264;6.592;2023-03-23T00:48:50;14.20;99.90
51996;DHT22;38010;53.264;6.592;2023-03-23T00:51:19;14.20;99.90
51996;DHT22;38010;53.264;6.592;2023-03-23T00:53:46;14.20;99.90
51996;DHT22;38010;53.264;6.592;2023-03-23T00:56:12;14.20;99.90
51996;DHT22;38010;53.264;6.592;2023-03-23T00:58:38;14.20;99.90
51996;DHT22;38010;53.264;6.592;2023-03-23T01:01:05;14.20;99.90
51996;DHT22;38010;53.264;6.592;2023-03-23T01:03:31;14.20;99.90
51996;DHT22;38010;53.264;6.592;2023-03-23T01:05:57;14.20;99.90
51996;DHT22;38010;53.264;6.592;2023-03-23T01:08:23;14.20;99.90
51996;DHT22;38010;53.264;6.592;2023-03-23T01:10:50;14.20;99.90
51996;DHT22;38010;53.264;6.592;2023-03-23T01:13:16;14.20;99.90
51996;DHT22;38010;53.264;6.592;2023-03-23T01:15:42;14.20;99.90
51996;DHT22;38010;53.264;6.592;2023-03-23T01:18:10;14.20;99.90
51996;DHT22;38010;53.264;6.592;2023-03-23T01:20:36;14.20;99.90
51996;DHT22;38010;53.264;6.592;2023-03-23T01:23:02;14.20;99.90
51996;DHT22;38010;53.264;6.592;2023-03-23T01:25:30;14.20;99.90
51996;DHT22;38010;53.264;6.592;2023-03-23T01:27:56;14.20;99.90
51996;DHT22;38010;53.264;6.592;2023-03-23T01:30:22;14.20;99.90
51996;DHT22;38010;53.264;6.592;2023-03-23T01:32:49;14.20;99.90
51996;DHT22;38010;53.264;6.592;2023-03-23T01:35:15;14.10;99.90
51996;DHT22;38010;53.264;6.592;2023-03-23T01:37:42;14.20;99.90
51996;DHT22;38010;53.264;6.592;2023-03-23T01:40:09;14.20;99.90
51996;DHT22;38010;53.264;6.592;2023-03-23T01:42:37;14.20;99.90
51996;DHT22;38010;53.264;6.592;2023-03-23T01:45:23;14.20;99.90
51996;DHT22;38010;53.264;6.592;2023-03-23T01:48:03;14.20;99.90
51996;DHT22;38010;53.264;6.592;2023-03-23T01:50:35;14.10;99.90
51996;DHT22;38010;53.264;6.592;2023-03-23T01:53:02;14.10;99.90
51996;DHT22;38010;53.264;6.592;2023-03-23T01:55:29;14.10;99.90
51996;DHT22;38010;53.264;6.592;2023-03-23T01:57:56;14.20;99.90
51996;DHT22;38010;53.264;6.592;2023-03-23T02:00:23;14.10;99.90
51996;DHT22;38010;53.264;6.592;2023-03-23T02:02:50;14.10;99.90
51996;DHT22;38010;53.264;6.592;2023-03-23T02:05:34;14.10;99.90
51996;DHT22;38010;53.264;6.592;2023-03-23T02:08:04;14.10;99.90
51996;DHT22;38010;53.264;6.592;2023-03-23T02:10:32;14.10;99.90
51996;DHT22;38010;53.264;6.592;2023-03-23T02:12:59;14.10;99.90
51996;DHT22;38010;53.264;6.592;2023-03-23T02:15:31;14.10;99.90
51996;DHT22;38010;53.264;6.592;2023-03-23T02:27:03;14.10;99.90
51996;DHT22;38010;53.264;6.592;2023-03-23T02:35:17;14.10;99.90
51996;DHT22;38010;53.264;6.592;2023-03-23T02:37:55;14.10;99.90
51996;DHT22;38010;53.264;6.592;2023-03-23T02:40:41;14.10;99.90
51996;DHT22;38010;53.264;6.592;2023-03-23T02:43:11;14.10;99.90
51996;DHT22;38010;53.264;6.592;2023-03-23T02:45:38;14.10;99.90
51996;DHT22;38010;53.264;6.592;2023-03-23T02:48:06;14.10;99.90
51996;DHT22;38010;53.264;6.592;2023-03-23T02:50:33;14.10;99.90
51996;DHT22;38010;53.264;6.592;2023-03-23T02:53:01;14.10;99.90
51996;DHT22;38010;53.264;6.592;2023-03-23T02:55:28;14.10;99.90
51996;DHT22;38010;53.264;6.592;2023-03-23T02:57:55;14.10;99.90
51996;DHT22;38010;53.264;6.592;2023-03-23T03:00:21;14.10;99.90
51996;DHT22;38010;53.264;6.592;2023-03-23T03:02:50;14.10;99.90
51996;DHT22;38010;53.264;6.592;2023-03-23T03:08:04;14.10;99.90
51996;DHT22;38010;53.264;6.592;2023-03-23T03:10:41;14.10;99.90
51996;DHT22;38010;53.264;6.592;2023-03-23T03:16:14;14.10;99.90
51996;DHT22;38010;53.264;6.592;2023-03-23T03:21:31;14.10;99.90
51996;DHT22;38010;53.264;6.592;2023-03-23T03:24:00;14.10;99.90
51996;DHT22;38010;53.264;6.592;2023-03-23T03:26:28;14.10;99.90
51996;DHT22;38010;53.264;6.592;2023-03-23T03:28:56;14.10;99.90
51996;DHT22;38010;53.264;6.592;2023-03-23T03:31:29;14.10;99.90
51996;DHT22;38010;53.264;6.592;2023-03-23T03:33:56;14.10;99.90
51996;DHT22;38010;53.264;6.592;2023-03-23T03:36:28;14.10;99.90
51996;DHT22;38010;53.264;6.592;2023-03-23T03:39:02;14.10;99.90
51996;DHT22;38010;53.264;6.592;2023-03-23T03:41:33;14.10;99.90
51996;DHT22;38010;53.264;6.592;2023-03-23T03:43:59;14.10;99.90
51996;DHT22;38010;53.264;6.592;2023-03-23T03:46:25;14.10;99.90
51996;DHT22;38010;53.264;6.592;2023-03-23T03:48:55;14.00;99.90
51996;DHT22;38010;53.264;6.592;2023-03-23T03:51:22;14.10;99.90
51996;DHT22;38010;53.264;6.592;2023-03-23T03:53:48;14.10;99.90
51996;DHT22;38010;53.264;6.592;2023-03-23T03:56:14;14.10;99.90
51996;DHT22;38010;53.264;6.592;2023-03-23T03:58:40;14.10;99.90
51996;DHT22;38010;53.264;6.592;2023-03-23T04:01:09;14.10;99.90
51996;DHT22;38010;53.264;6.592;2023-03-23T04:03:39;14.10;99.90
51996;DHT22;38010;53.264;6.592;2023-03-23T04:06:05;14.10;99.90
51996;DHT22;38010;53.264;6.592;2023-03-23T04:08:31;14.10;99.90
51996;DHT22;38010;53.264;6.592;2023-03-23T04:10:58;14.10;99.90
51996;DHT22;38010;53.264;6.592;2023-03-23T04:13:23;14.10;99.90
51996;DHT22;38010;53.264;6.592;2023-03-23T04:15:49;14.10;99.90
51996;DHT22;38010;53.264;6.592;2023-03-23T04:18:15;14.10;99.90
51996;DHT22;38010;53.264;6.592;2023-03-23T04:20:44;14.10;99.90
51996;DHT22;38010;53.264;6.592;2023-03-23T04:23:10;14.10;99.90
51996;DHT22;38010;53.264;6.592;2023-03-23T04:25:36;14.10;99.90
51996;DHT22;38010;53.264;6.592;2023-03-23T04:28:02;14.10;99.90
51996;DHT22;38010;53.264;6.592;2023-03-23T04:30:28;14.10;99.90
51996;DHT22;38010;53.264;6.592;2023-03-23T04:32:56;14.10;99.90
51996;DHT22;38010;53.264;6.592;2023-03-23T04:35:25;14.10;99.90
51996;DHT22;38010;53.264;6.592;2023-03-23T04:37:51;14.10;99.90
51996;DHT22;38010;53.264;6.592;2023-03-23T04:40:18;14.10;99.90
51996;DHT22;38010;53.264;6.592;2023-03-23T04:42:44;14.00;99.90
51996;DHT22;38010;53.264;6.592;2023-03-23T04:45:15;14.00;99.90
51996;DHT22;38010;53.264;6.592;2023-03-23T04:47:50;14.00;99.90
51996;DHT22;38010;53.264;6.592;2023-03-23T04:50:27;14.00;99.90
51996;DHT22;38010;53.264;6.592;2023-03-23T04:52:53;14.00;99.90
51996;DHT22;38010;53.264;6.592;2023-03-23T04:55:23;14.00;99.90
51996;DHT22;38010;53.264;6.592;2023-03-23T04:57:49;14.00;99.90
51996;DHT22;38010;53.264;6.592;2023-03-23T05:00:15;14.00;99.90
51996;DHT22;38010;53.264;6.592;2023-03-23T05:02:43;14.00;99.90
51996;DHT22;38010;53.264;6.592;2023-03-23T05:05:11;14.00;99.90
51996;DHT22;38010;53.264;6.592;2023-03-23T05:07:41;14.00;99.90
51996;DHT22;38010;53.264;6.592;2023-03-23T05:10:09;14.00;99.90
51996;DHT22;38010;53.264;6.592;2023-03-23T05:12:36;14.00;99.90
51996;DHT22;38010;53.264;6.592;2023-03-23T05:15:02;14.00;99.90
51996;DHT22;38010;53.264;6.592;2023-03-23T05:17:27;14.00;99.90
51996;DHT22;38010;53.264;6.592;2023-03-23T05:19:55;14.00;99.90
51996;DHT22;38010;53.264;6.592;2023-03-23T05:22:22;14.00;99.90
51996;DHT22;38010;53.264;6.592;2023-03-23T05:24:49;14.00;99.90
51996;DHT22;38010;53.264;6.592;2023-03-23T05:27:17;14.00;99.90
51996;DHT22;38010;53.264;6.592;2023-03-23T05:29:45;14.00;99.90
51996;DHT22;38010;53.264;6.592;2023-03-23T05:32:17;14.00;99.90
51996;DHT22;38010;53.264;6.592;2023-03-23T05:34:44;14.00;99.90
51996;DHT22;38010;53.264;6.592;2023-03-23T05:37:12;14.00;99.90
51996;DHT22;38010;53.264;6.592;2023-03-23T05:39:39;14.00;99.90
51996;DHT22;38010;53.264;6.592;2023-03-23T05:42:05;14.00;99.90
51996;DHT22;38010;53.264;6.592;2023-03-23T05:44:33;14.00;99.90
51996;DHT22;38010;53.264;6.592;2023-03-23T05:46:58;14.00;99.90
51996;DHT22;38010;53.264;6.592;2023-03-23T05:49:24;14.00;99.90
51996;DHT22;38010;53.264;6.592;2023-03-23T05:51:52;14.00;99.90
51996;DHT22;38010;53.264;6.592;2023-03-23T05:54:18;14.00;99.90
51996;DHT22;38010;53.264;6.592;2023-03-23T05:56:43;14.00;99.90
51996;DHT22;38010;53.264;6.592;2023-03-23T05:59:09;14.00;99.90
51996;DHT22;38010;53.264;6.592;2023-03-23T06:01:38;14.00;99.90
51996;DHT22;38010;53.264;6.592;2023-03-23T06:04:04;14.00;99.90
51996;DHT22;38010;53.264;6.592;2023-03-23T06:06:30;14.00;99.90
51996;DHT22;38010;53.264;6.592;2023-03-23T06:08:57;14.00;99.90
51996;DHT22;38010;53.264;6.592;2023-03-23T06:11:24;14.00;99.90
51996;DHT22;38010;53.264;6.592;2023-03-23T06:13:51;14.00;99.90
51996;DHT22;38010;53.264;6.592;2023-03-23T06:16:19;14.00;99.90
51996;DHT22;38010;53.264;6.592;2023-03-23T06:18:45;14.00;99.90
51996;DHT22;38010;53.264;6.592;2023-03-23T06:21:12;14.00;99.90
51996;DHT22;38010;53.264;6.592;2023-03-23T06:23:38;14.00;99.90
51996;DHT22;38010;53.264;6.592;2023-03-23T06:26:06;14.00;99.90
51996;DHT22;38010;53.264;6.592;2023-03-23T06:28:33;14.00;99.90
51996;DHT22;38010;53.264;6.592;2023-03-23T06:31:04;14.00;99.90
51996;DHT22;38010;53.264;6.592;2023-03-23T06:33:32;14.00;99.90
51996;DHT22;38010;53.264;6.592;2023-03-23T06:35:59;14.00;99.90
51996;DHT22;38010;53.264;6.592;2023-03-23T06:38:25;14.00;99.90
51996;DHT22;38010;53.264;6.592;2023-03-23T06:40:55;14.00;99.90
51996;DHT22;38010;53.264;6.592;2023-03-23T06:43:21;14.00;99.90
51996;DHT22;38010;53.264;6.592;2023-03-23T06:45:47;14.00;99.90
51996;DHT22;38010;53.264;6.592;2023-03-23T06:48:13;14.00;99.90
51996;DHT22;38010;53.264;6.592;2023-03-23T06:50:43;14.00;99.90
51996;DHT22;38010;53.264;6.592;2023-03-23T06:53:09;14.10;99.90
51996;DHT22;38010;53.264;6.592;2023-03-23T06:55:35;14.10;99.90
51996;DHT22;38010;53.264;6.592;2023-03-23T06:58:02;14.10;99.90
51996;DHT22;38010;53.264;6.592;2023-03-23T07:00:28;14.10;99.90
51996;DHT22;38010;53.264;6.592;2023-03-23T07:02:54;14.10;99.90
51996;DHT22;38010;53.264;6.592;2023-03-23T07:05:20;14.10;99.90
51996;DHT22;38010;53.264;6.592;2023-03-23T07:07:46;14.10;99.90
51996;DHT22;38010;53.264;6.592;2023-03-23T07:10:12;14.10;99.90
51996;DHT22;38010;53.264;6.592;2023-03-23T07:12:38;14.10;99.90
51996;DHT22;38010;53.264;6.592;2023-03-23T07:15:06;14.10;99.90
51996;DHT22;38010;53.264;6.592;2023-03-23T07:17:34;14.10;99.90
51996;DHT22;38010;53.264;6.592;2023-03-23T07:20:00;14.10;99.90
51996;DHT22;38010;53.264;6.592;2023-03-23T07:22:26;14.10;99.90
51996;DHT22;38010;53.264;6.592;2023-03-23T07:24:51;14.10;99.90
51996;DHT22;38010;53.264;6.592;2023-03-23T07:27:17;14.10;99.90
51996;DHT22;38010;53.264;6.592;2023-03-23T07:29:43;14.00;99.90
51996;DHT22;38010;53.264;6.592;2023-03-23T07:32:11;14.10;99.90
51996;DHT22;38010;53.264;6.592;2023-03-23T07:34:38;14.00;99.90
51996;DHT22;38010;53.264;6.592;2023-03-23T07:37:04;14.00;99.90
51996;DHT22;38010;53.264;6.592;2023-03-23T07:39:31;14.00;99.90
51996;DHT22;38010;53.264;6.592;2023-03-23T07:41:57;14.00;99.90
51996;DHT22;38010;53.264;6.592;2023-03-23T07:44:23;14.00;99.90
51996;DHT22;38010;53.264;6.592;2023-03-23T07:46:49;14.00;99.90
51996;DHT22;38010;53.264;6.592;2023-03-23T07:49:16;14.00;99.90
51996;DHT22;38010;53.264;6.592;2023-03-23T07:51:43;14.00;99.90
51996;DHT22;38010;53.264;6.592;2023-03-23T07:54:09;14.00;99.90
51996;DHT22;38010;53.264;6.592;2023-03-23T07:56:36;14.00;99.90
51996;DHT22;38010;53.264;6.592;2023-03-23T07:59:02;14.00;99.90
51996;DHT22;38010;53.264;6.592;2023-03-23T08:01:30;14.00;99.90
51996;DHT22;38010;53.264;6.592;2023-03-23T08:03:56;14.00;99.90
51996;DHT22;38010;53.264;6.592;2023-03-23T08:06:26;14.00;99.90
51996;DHT22;38010;53.264;6.592;2023-03-23T08:08:53;14.00;99.90
51996;DHT22;38010;53.264;6.592;2023-03-23T08:11:20;14.00;99.90
51996;DHT22;38010;53.264;6.592;2023-03-23T08:13:47;14.00;99.90
51996;DHT22;38010;53.264;6.592;2023-03-23T08:16:13;14.10;99.90
51996;DHT22;38010;53.264;6.592;2023-03-23T08:18:39;14.00;99.90
51996;DHT22;38010;53.264;6.592;2023-03-23T08:21:06;14.00;99.90
51996;DHT22;38010;53.264;6.592;2023-03-23T08:23:35;14.00;99.90
51996;DHT22;38010;53.264;6.592;2023-03-23T08:26:03;14.00;99.90
51996;DHT22;38010;53.264;6.592;2023-03-23T08:28:30;14.10;99.90
51996;DHT22;38010;53.264;6.592;2023-03-23T08:30:56;14.00;99.90
51996;DHT22;38010;53.264;6.592;2023-03-23T08:33:22;14.10;99.90
51996;DHT22;38010;53.264;6.592;2023-03-23T08:35:57;14.10;99.90
51996;DHT22;38010;53.264;6.592;2023-03-23T08:38:23;14.10;99.90
51996;DHT22;38010;53.264;6.592;2023-03-23T08:40:50;14.10;99.90
51996;DHT22;38010;53.264;6.592;2023-03-23T08:43:16;14.10;99.90
51996;DHT22;38010;53.264;6.592;2023-03-23T08:45:42;14.10;99.90
51996;DHT22;38010;53.264;6.592;2023-03-23T08:48:08;14.10;99.90
51996;DHT22;38010;53.264;6.592;2023-03-23T08:50:35;14.10;99.90
51996;DHT22;38010;53.264;6.592;2023-03-23T08:53:01;14.10;99.90
51996;DHT22;38010;53.264;6.592;2023-03-23T08:55:28;14.00;99.90
51996;DHT22;38010;53.264;6.592;2023-03-23T08:57:54;14.10;99.90
51996;DHT22;38010;53.264;6.592;2023-03-23T09:00:21;14.10;99.90
51996;DHT22;38010;53.264;6.592;2023-03-23T09:02:51;14.10;99.90
51996;DHT22;38010;53.264;6.592;2023-03-23T09:05:20;14.10;99.90
51996;DHT22;38010;53.264;6.592;2023-03-23T09:07:48;14.10;99.90
51996;DHT22;38010;53.264;6.592;2023-03-23T09:10:15;14.10;99.90
51996;DHT22;38010;53.264;6.592;2023-03-23T09:12:42;14.10;99.90
51996;DHT22;38010;53.264;6.592;2023-03-23T09:15:10;14.10;99.90
51996;DHT22;38010;53.264;6.592;2023-03-23T09:17:39;14.10;99.90
51996;DHT22;38010;53.264;6.592;2023-03-23T09:20:06;14.10;99.90
51996;DHT22;38010;53.264;6.592;2023-03-23T09:22:36;14.10;99.90
51996;DHT22;38010;53.264;6.592;2023-03-23T09:25:04;14.10;99.90
51996;DHT22;38010;53.264;6.592;2023-03-23T09:27:30;14.10;99.90
51996;DHT22;38010;53.264;6.592;2023-03-23T09:29:56;14.10;99.90
51996;DHT22;38010;53.264;6.592;2023-03-23T09:32:22;14.10;99.90
51996;DHT22;38010;53.264;6.592;2023-03-23T09:34:48;14.10;99.90
51996;DHT22;38010;53.264;6.592;2023-03-23T09:37:14;14.10;99.90
51996;DHT22;38010;53.264;6.592;2023-03-23T09:39:39;14.10;99.90
51996;DHT22;38010;53.264;6.592;2023-03-23T09:42:15;14.10;99.90
51996;DHT22;38010;53.264;6.592;2023-03-23T09:50:18;14.20;99.90
51996;DHT22;38010;53.264;6.592;2023-03-23T09:52:46;14.20;99.90
51996;DHT22;38010;53.264;6.592;2023-03-23T09:55:15;14.20;99.90
51996;DHT22;38010;53.264;6.592;2023-03-23T09:58:12;14.20;99.90
51996;DHT22;38010;53.264;6.592;2023-03-23T10:00:55;14.20;99.90
51996;DHT22;38010;53.264;6.592;2023-03-23T10:03:27;14.20;99.90
51996;DHT22;38010;53.264;6.592;2023-03-23T10:05:56;14.20;99.90
51996;DHT22;38010;53.264;6.592;2023-03-23T10:08:24;14.20;99.90
51996;DHT22;38010;53.264;6.592;2023-03-23T10:16:00;14.20;99.90
51996;DHT22;38010;53.264;6.592;2023-03-23T10:18:38;14.20;99.90
51996;DHT22;38010;53.264;6.592;2023-03-23T10:21:16;14.20;99.90
51996;DHT22;38010;53.264;6.592;2023-03-23T10:24:01;14.20;99.90
51996;DHT22;38010;53.264;6.592;2023-03-23T10:31:49;14.20;99.90
51996;DHT22;38010;53.264;6.592;2023-03-23T10:37:24;14.20;99.90
51996;DHT22;38010;53.264;6.592;2023-03-23T10:40:00;14.20;99.90
51996;DHT22;38010;53.264;6.592;2023-03-23T10:42:31;14.20;99.90
51996;DHT22;38010;53.264;6.592;2023-03-23T10:44:59;14.20;99.90
51996;DHT22;38010;53.264;6.592;2023-03-23T10:47:26;14.20;99.90
51996;DHT22;38010;53.264;6.592;2023-03-23T10:50:02;14.20;99.90
51996;DHT22;38010;53.264;6.592;2023-03-23T10:52:37;14.20;99.90
51996;DHT22;38010;53.264;6.592;2023-03-23T10:57:42;14.20;99.90
51996;DHT22;38010;53.264;6.592;2023-03-23T11:02:47;14.20;99.90
51996;DHT22;38010;53.264;6.592;2023-03-23T11:05:19;14.20;99.90
51996;DHT22;38010;53.264;6.592;2023-03-23T11:08:12;14.20;99.90
51996;DHT22;38010;53.264;6.592;2023-03-23T11:10:54;14.20;99.90
51996;DHT22;38010;53.264;6.592;2023-03-23T11:13:22;14.20;99.90
51996;DHT22;38010;53.264;6.592;2023-03-23T11:15:50;14.20;99.90
51996;DHT22;38010;53.264;6.592;2023-03-23T11:18:47;14.20;99.90
51996;DHT22;38010;53.264;6.592;2023-03-23T11:21:14;14.20;99.90
51996;DHT22;38010;53.264;6.592;2023-03-23T11:23:43;14.20;99.90
51996;DHT22;38010;53.264;6.592;2023-03-23T11:31:32;14.20;99.90
51996;DHT22;38010;53.264;6.592;2023-03-23T11:33:59;14.20;99.90
51996;DHT22;38010;53.264;6.592;2023-03-23T11:36:32;14.20;99.90
51996;DHT22;38010;53.264;6.592;2023-03-23T11:38:58;14.20;99.90
51996;DHT22;38010;53.264;6.592;2023-03-23T11:41:33;14.20;99.90
51996;DHT22;38010;53.264;6.592;2023-03-23T11:44:04;14.20;99.90
51996;DHT22;38010;53.264;6.592;2023-03-23T11:46:48;14.20;99.90
51996;DHT22;38010;53.264;6.592;2023-03-23T11:54:49;14.20;99.90
51996;DHT22;38010;53.264;6.592;2023-03-23T11:57:16;14.20;99.90
51996;DHT22;38010;53.264;6.592;2023-03-23T11:59:43;14.20;99.90
51996;DHT22;38010;53.264;6.592;2023-03-23T12:10:45;14.30;99.90
51996;DHT22;38010;53.264;6.592;2023-03-23T12:18:55;14.30;99.90
51996;DHT22;38010;53.264;6.592;2023-03-23T12:21:36;14.30;99.90
51996;DHT22;38010;53.264;6.592;2023-03-23T12:40:46;14.40;99.90
51996;DHT22;38010;53.264;6.592;2023-03-23T12:43:27;14.40;99.90
51996;DHT22;38010;53.264;6.592;2023-03-23T12:46:10;14.40;99.90
51996;DHT22;38010;53.264;6.592;2023-03-23T12:48:46;14.50;99.90
51996;DHT22;38010;53.264;6.592;2023-03-23T12:51:33;14.40;99.90
51996;DHT22;38010;53.264;6.592;2023-03-23T12:56:42;14.40;99.90
51996;DHT22;38010;53.264;6.592;2023-03-23T13:02:15;14.40;99.90
51996;DHT22;38010;53.264;6.592;2023-03-23T13:04:47;14.40;99.90
51996;DHT22;38010;53.264;6.592;2023-03-23T13:07:23;14.40;99.90
51996;DHT22;38010;53.264;6.592;2023-03-23T13:10:15;14.40;99.90
51996;DHT22;38010;53.264;6.592;2023-03-23T13:12:45;14.40;99.90
51996;DHT22;38010;53.264;6.592;2023-03-23T13:15:37;14.40;99.90
51996;DHT22;38010;53.264;6.592;2023-03-23T13:20:51;14.50;99.90
51996;DHT22;38010;53.264;6.592;2023-03-23T13:23:37;14.50;99.90
51996;DHT22;38010;53.264;6.592;2023-03-23T13:28:57;14.50;99.90
51996;DHT22;38010;53.264;6.592;2023-03-23T13:31:35;14.50;99.90
51996;DHT22;38010;53.264;6.592;2023-03-23T13:37:03;14.40;99.90
51996;DHT22;38010;53.264;6.592;2023-03-23T13:39:31;14.40;99.90
51996;DHT22;38010;53.264;6.592;2023-03-23T13:49:56;14.40;99.90
51996;DHT22;38010;53.264;6.592;2023-03-23T13:52:35;14.40;99.90
51996;DHT22;38010;53.264;6.592;2023-03-23T13:57:50;14.30;99.90
51996;DHT22;38010;53.264;6.592;2023-03-23T14:06:02;14.40;99.90
51996;DHT22;38010;53.264;6.592;2023-03-23T14:11:09;14.40;99.90
51996;DHT22;38010;53.264;6.592;2023-03-23T14:16:20;14.40;99.90
51996;DHT22;38010;53.264;6.592;2023-03-23T14:19:03;14.40;99.90
51996;DHT22;38010;53.264;6.592;2023-03-23T14:21:37;14.40;99.90
51996;DHT22;38010;53.264;6.592;2023-03-23T14:24:32;14.30;99.90
51996;DHT22;38010;53.264;6.592;2023-03-23T14:27:17;14.40;99.90
51996;DHT22;38010;53.264;6.592;2023-03-23T14:29:43;14.40;99.90
51996;DHT22;38010;53.264;6.592;2023-03-23T14:32:15;14.50;99.90
51996;DHT22;38010;53.264;6.592;2023-03-23T14:34:42;14.60;99.90
51996;DHT22;38010;53.264;6.592;2023-03-23T14:37:13;14.60;99.90
51996;DHT22;38010;53.264;6.592;2023-03-23T14:39:39;14.60;99.90
51996;DHT22;38010;53.264;6.592;2023-03-23T14:42:14;14.60;99.90
51996;DHT22;38010;53.264;6.592;2023-03-23T14:44:49;14.60;99.90
51996;DHT22;38010;53.264;6.592;2023-03-23T14:47:22;14.60;99.90
51996;DHT22;38010;53.264;6.592;2023-03-23T14:49:57;14.60;99.90
51996;DHT22;38010;53.264;6.592;2023-03-23T14:52:26;14.70;99.90
51996;DHT22;38010;53.264;6.592;2023-03-23T14:54:52;14.70;99.90
51996;DHT22;38010;53.264;6.592;2023-03-23T14:59:49;14.90;99.90
51996;DHT22;38010;53.264;6.592;2023-03-23T15:02:22;14.90;99.90
51996;DHT22;38010;53.264;6.592;2023-03-23T15:04:54;14.90;99.90
51996;DHT22;38010;53.264;6.592;2023-03-23T15:07:25;15.00;99.90
51996;DHT22;38010;53.264;6.592;2023-03-23T15:09:51;15.00;99.90
51996;DHT22;38010;53.264;6.592;2023-03-23T15:12:23;15.00;99.90
51996;DHT22;38010;53.264;6.592;2023-03-23T15:14:54;15.10;99.90
51996;DHT22;38010;53.264;6.592;2023-03-23T15:17:33;15.10;99.90
51996;DHT22;38010;53.264;6.592;2023-03-23T15:20:18;15.10;99.90
51996;DHT22;38010;53.264;6.592;2023-03-23T15:25:29;15.20;99.90
51996;DHT22;38010;53.264;6.592;2023-03-23T15:28:18;15.20;99.90
51996;DHT22;38010;53.264;6.592;2023-03-23T15:30:56;15.30;99.90
51996;DHT22;38010;53.264;6.592;2023-03-23T15:33:24;15.50;99.90
51996;DHT22;38010;53.264;6.592;2023-03-23T15:35:55;15.50;99.90
51996;DHT22;38010;53.264;6.592;2023-03-23T15:38:32;15.60;99.90
51996;DHT22;38010;53.264;6.592;2023-03-23T15:41:01;15.60;99.90
51996;DHT22;38010;53.264;6.592;2023-03-23T15:43:31;15.70;99.90
51996;DHT22;38010;53.264;6.592;2023-03-23T15:46:01;15.80;99.90
51996;DHT22;38010;53.264;6.592;2023-03-23T15:51:14;15.80;99.90
51996;DHT22;38010;53.264;6.592;2023-03-23T15:53:41;15.80;99.90
51996;DHT22;38010;53.264;6.592;2023-03-23T15:56:09;15.90;99.90
51996;DHT22;38010;53.264;6.592;2023-03-23T15:58:36;15.90;99.90
51996;DHT22;38010;53.264;6.592;2023-03-23T16:01:11;15.90;99.90
51996;DHT22;38010;53.264;6.592;2023-03-23T16:06:12;15.90;99.90
51996;DHT22;38010;53.264;6.592;2023-03-23T16:08:39;15.90;99.90
51996;DHT22;38010;53.264;6.592;2023-03-23T16:11:13;15.90;99.90
51996;DHT22;38010;53.264;6.592;2023-03-23T16:13:39;15.90;99.90
51996;DHT22;38010;53.264;6.592;2023-03-23T16:16:10;15.90;99.90
51996;DHT22;38010;53.264;6.592;2023-03-23T16:18:37;15.90;99.90
51996;DHT22;38010;53.264;6.592;2023-03-23T16:21:03;15.90;99.90
51996;DHT22;38010;53.264;6.592;2023-03-23T16:23:28;15.80;99.90
51996;DHT22;38010;53.264;6.592;2023-03-23T16:25:54;15.70;99.90
51996;DHT22;38010;53.264;6.592;2023-03-23T16:28:20;15.60;99.90
51996;DHT22;38010;53.264;6.592;2023-03-23T16:30:46;15.60;99.90
51996;DHT22;38010;53.264;6.592;2023-03-23T16:33:12;15.60;99.90
51996;DHT22;38010;53.264;6.592;2023-03-23T16:35:38;15.60;99.90
51996;DHT22;38010;53.264;6.592;2023-03-23T16:38:04;15.50;99.90
51996;DHT22;38010;53.264;6.592;2023-03-23T16:40:31;15.50;99.90
51996;DHT22;38010;53.264;6.592;2023-03-23T16:42:57;15.50;99.90
51996;DHT22;38010;53.264;6.592;2023-03-23T16:45:24;15.40;99.90
51996;DHT22;38010;53.264;6.592;2023-03-23T16:52:46;15.30;99.90
51996;DHT22;38010;53.264;6.592;2023-03-23T16:55:15;15.20;99.90
51996;DHT22;38010;53.264;6.592;2023-03-23T16:57:41;15.20;99.90
51996;DHT22;38010;53.264;6.592;2023-03-23T17:00:10;15.20;99.90
51996;DHT22;38010;53.264;6.592;2023-03-23T17:02:42;15.20;99.90
51996;DHT22;38010;53.264;6.592;2023-03-23T17:05:09;15.10;99.90
51996;DHT22;38010;53.264;6.592;2023-03-23T17:07:39;15.10;99.90
51996;DHT22;38010;53.264;6.592;2023-03-23T17:10:06;15.10;99.90
51996;DHT22;38010;53.264;6.592;2023-03-23T17:12:33;15.10;99.90
51996;DHT22;38010;53.264;6.592;2023-03-23T17:14:59;15.00;99.90
51996;DHT22;38010;53.264;6.592;2023-03-23T17:17:25;15.00;99.90
51996;DHT22;38010;53.264;6.592;2023-03-23T17:19:50;15.00;99.90
51996;DHT22;38010;53.264;6.592;2023-03-23T17:22:16;14.90;99.90
51996;DHT22;38010;53.264;6.592;2023-03-23T17:24:42;14.90;99.90
51996;DHT22;38010;53.264;6.592;2023-03-23T17:27:08;14.90;99.90
51996;DHT22;38010;53.264;6.592;2023-03-23T17:29:34;14.90;99.90
51996;DHT22;38010;53.264;6.592;2023-03-23T17:32:00;14.90;99.90
51996;DHT22;38010;53.264;6.592;2023-03-23T17:34:26;14.90;99.90
51996;DHT22;38010;53.264;6.592;2023-03-23T17:36:51;14.90;99.90
51996;DHT22;38010;53.264;6.592;2023-03-23T17:39:17;14.90;99.90
51996;DHT22;38010;53.264;6.592;2023-03-23T17:41:43;14.90;99.90
51996;DHT22;38010;53.264;6.592;2023-03-23T17:44:08;15.00;99.90
51996;DHT22;38010;53.264;6.592;2023-03-23T17:46:34;15.00;99.90
51996;DHT22;38010;53.264;6.592;2023-03-23T17:49:00;15.10;99.90
51996;DHT22;38010;53.264;6.592;2023-03-23T17:51:26;15.10;99.90
51996;DHT22;38010;53.264;6.592;2023-03-23T17:53:51;15.20;99.90
51996;DHT22;38010;53.264;6.592;2023-03-23T17:56:17;15.30;99.90
51996;DHT22;38010;53.264;6.592;2023-03-23T17:58:43;15.30;99.90
51996;DHT22;38010;53.264;6.592;2023-03-23T18:01:09;15.40;99.90
51996;DHT22;38010;53.264;6.592;2023-03-23T18:03:35;15.50;99.90
51996;DHT22;38010;53.264;6.592;2023-03-23T18:06:04;15.60;99.90